AMX170 MMMX-MMTJ
Flight info
| Callsign | AMX170 |
|---|---|
| Flight time | N/A |
| Altitude | 38000 |
| Route | ATUR2A/05R ATURO UT134 ZCL UJ5 DGO DCT TAVLO DCT HMO DCT AVRIL UJ3 TANRI TANRI1B |
| Aircraft | B772/H-SDE2E3FGHIJ5LORVWXY/LB1D1 |
Departure
| Time | N/A |
|---|---|
| Airport | Mexico City Benito Juárez International Airport (MMMX) |
Arrival
| Time | 2026-04-30 19:30 |
|---|---|
| Airport | General Abelardo L. Rodriguez International Airport (MMTJ) |
| Time | Latitude | Longitude | Altitude | Speed | Heading |
|---|---|---|---|---|---|
| 2026-04-30 17:39 | 25.47335 | -106.29644 | 38445 ft | 432 kts | 303° |
| 2026-04-30 17:42 | 25.66305 | -106.55484 | 38368 ft | 433 kts | 303° |
| 2026-04-30 17:43 | 25.75757 | -106.68412 | 38375 ft | 433 kts | 302° |
| 2026-04-30 17:44 | 25.87124 | -106.84010 | 38394 ft | 435 kts | 302° |
| 2026-04-30 17:47 | 26.04122 | -107.07432 | 38388 ft | 433 kts | 302° |
| 2026-04-30 17:48 | 26.17308 | -107.25684 | 38310 ft | 433 kts | 302° |
| 2026-04-30 17:50 | 26.32365 | -107.46618 | 38260 ft | 435 kts | 302° |
| 2026-04-30 17:52 | 26.43671 | -107.62398 | 38187 ft | 435 kts | 302° |
| 2026-04-30 17:54 | 26.60580 | -107.86102 | 38179 ft | 433 kts | 301° |
| 2026-04-30 17:56 | 26.75777 | -108.07066 | 38138 ft | 440 kts | 304° |
| 2026-04-30 17:58 | 26.88107 | -108.22166 | 37969 ft | 440 kts | 304° |
| 2026-04-30 18:00 | 27.04448 | -108.42403 | 37931 ft | 438 kts | 304° |
| 2026-04-30 18:01 | 27.14644 | -108.55088 | 37949 ft | 439 kts | 304° |
| 2026-04-30 18:02 | 27.26829 | -108.70298 | 37992 ft | 438 kts | 303° |
| 2026-04-30 18:04 | 27.38975 | -108.85511 | 38008 ft | 434 kts | 303° |
| 2026-04-30 18:06 | 27.55147 | -109.05855 | 38021 ft | 435 kts | 303° |
| 2026-04-30 18:08 | 27.69258 | -109.23685 | 37905 ft | 435 kts | 303° |
| 2026-04-30 18:10 | 27.85287 | -109.44029 | 37931 ft | 432 kts | 303° |
| 2026-04-30 18:11 | 27.99311 | -109.61912 | 37889 ft | 435 kts | 303° |
| 2026-04-30 18:13 | 28.09286 | -109.74675 | 37892 ft | 432 kts | 302° |
| 2026-04-30 18:14 | 28.19212 | -109.87415 | 37878 ft | 432 kts | 302° |
| 2026-04-30 18:15 | 28.31049 | -110.02660 | 37890 ft | 430 kts | 302° |
| 2026-04-30 18:16 | 28.38932 | -110.12842 | 37902 ft | 429 kts | 302° |
| 2026-04-30 18:17 | 28.42869 | -110.17939 | 37904 ft | 431 kts | 302° |
| 2026-04-30 18:18 | 28.48809 | -110.25635 | 37901 ft | 428 kts | 302° |
| 2026-04-30 18:18 | 28.52726 | -110.30722 | 37907 ft | 430 kts | 302° |
| 2026-04-30 18:19 | 28.56665 | -110.35842 | 37912 ft | 430 kts | 302° |
| 2026-04-30 18:19 | 28.60596 | -110.40955 | 37917 ft | 427 kts | 302° |
| 2026-04-30 18:20 | 28.64504 | -110.46049 | 37926 ft | 428 kts | 302° |
| 2026-04-30 18:20 | 28.68413 | -110.51148 | 37928 ft | 427 kts | 302° |
| 2026-04-30 18:21 | 28.72311 | -110.56239 | 37925 ft | 426 kts | 302° |
| 2026-04-30 18:21 | 28.76214 | -110.61346 | 37925 ft | 429 kts | 302° |
| 2026-04-30 18:22 | 28.80110 | -110.66447 | 37931 ft | 428 kts | 301° |
| 2026-04-30 18:22 | 28.85955 | -110.74109 | 37924 ft | 426 kts | 301° |
| 2026-04-30 18:23 | 28.89838 | -110.79211 | 37923 ft | 427 kts | 301° |
| 2026-04-30 18:23 | 28.93704 | -110.84293 | 37918 ft | 423 kts | 301° |
| 2026-04-30 18:24 | 28.99498 | -110.91929 | 37913 ft | 426 kts | 301° |
| 2026-04-30 18:25 | 29.03381 | -110.97049 | 37916 ft | 425 kts | 301° |
| 2026-04-30 18:25 | 29.09196 | -111.04734 | 37928 ft | 429 kts | 301° |
| 2026-04-30 18:26 | 29.15138 | -111.12423 | 37923 ft | 431 kts | 301° |
| 2026-04-30 18:27 | 29.21111 | -111.20127 | 37917 ft | 431 kts | 301° |
| 2026-04-30 18:28 | 29.27112 | -111.27891 | 37918 ft | 433 kts | 301° |
| 2026-04-30 18:28 | 29.33112 | -111.35669 | 37919 ft | 434 kts | 301° |
| 2026-04-30 18:29 | 29.41103 | -111.46054 | 37919 ft | 435 kts | 301° |
| 2026-04-30 18:30 | 29.49130 | -111.56512 | 37916 ft | 437 kts | 300° |
| 2026-04-30 18:31 | 29.55184 | -111.64419 | 37914 ft | 438 kts | 300° |
| 2026-04-30 18:32 | 29.61222 | -111.72321 | 37932 ft | 441 kts | 299° |
| 2026-04-30 18:33 | 29.67272 | -111.80257 | 37940 ft | 444 kts | 299° |
| 2026-04-30 18:33 | 29.73378 | -111.88274 | 37939 ft | 443 kts | 299° |
| 2026-04-30 18:34 | 29.79482 | -111.96311 | 37943 ft | 445 kts | 299° |
| 2026-04-30 18:35 | 29.83573 | -112.01708 | 37937 ft | 449 kts | 298° |
| 2026-04-30 18:35 | 29.87660 | -112.07101 | 37942 ft | 446 kts | 298° |
| 2026-04-30 18:36 | 29.93794 | -112.15215 | 37938 ft | 449 kts | 298° |
| 2026-04-30 18:37 | 29.99962 | -112.23391 | 37938 ft | 451 kts | 299° |
| 2026-04-30 18:37 | 30.04058 | -112.28824 | 37940 ft | 446 kts | 299° |
| 2026-04-30 18:38 | 30.08146 | -112.34262 | 37925 ft | 449 kts | 299° |
| 2026-04-30 18:38 | 30.12219 | -112.39683 | 37904 ft | 448 kts | 299° |
| 2026-04-30 18:39 | 30.16302 | -112.45124 | 37902 ft | 445 kts | 299° |
| 2026-04-30 18:39 | 30.20376 | -112.50567 | 37896 ft | 450 kts | 299° |
| 2026-04-30 18:40 | 30.24490 | -112.56065 | 37885 ft | 446 kts | 299° |
| 2026-04-30 18:40 | 30.28564 | -112.61519 | 37873 ft | 448 kts | 300° |
| 2026-04-30 18:41 | 30.32654 | -112.67001 | 37877 ft | 448 kts | 299° |
| 2026-04-30 18:41 | 30.36691 | -112.72419 | 37866 ft | 446 kts | 299° |
| 2026-04-30 18:42 | 30.40756 | -112.77886 | 37856 ft | 450 kts | 299° |
| 2026-04-30 18:42 | 30.46831 | -112.86063 | 37840 ft | 445 kts | 299° |
| 2026-04-30 18:45 | 30.69167 | -113.16288 | 37826 ft | 447 kts | 300° |
| 2026-04-30 18:46 | 30.73214 | -113.21794 | 37825 ft | 451 kts | 300° |
| 2026-04-30 18:46 | 30.77281 | -113.27330 | 37817 ft | 452 kts | 300° |
| 2026-04-30 18:47 | 30.81347 | -113.32872 | 37819 ft | 453 kts | 300° |
| 2026-04-30 18:47 | 30.85438 | -113.38457 | 37815 ft | 451 kts | 300° |
| 2026-04-30 18:48 | 30.89504 | -113.44018 | 37819 ft | 455 kts | 300° |
| 2026-04-30 18:48 | 30.93609 | -113.49638 | 37818 ft | 455 kts | 300° |
| 2026-04-30 18:49 | 30.97696 | -113.55241 | 37817 ft | 457 kts | 300° |
| 2026-04-30 18:49 | 31.01816 | -113.60898 | 37814 ft | 455 kts | 300° |
| 2026-04-30 18:50 | 31.05910 | -113.66525 | 37818 ft | 454 kts | 300° |
| 2026-04-30 18:50 | 31.10009 | -113.72176 | 37812 ft | 460 kts | 300° |
| 2026-04-30 18:51 | 31.14096 | -113.77808 | 37791 ft | 456 kts | 300° |
| 2026-04-30 18:51 | 31.18230 | -113.83523 | 37802 ft | 462 kts | 300° |
| 2026-04-30 18:52 | 31.22356 | -113.89227 | 37794 ft | 459 kts | 300° |
| 2026-04-30 18:52 | 31.26476 | -113.94934 | 37818 ft | 460 kts | 300° |
| 2026-04-30 18:53 | 31.30625 | -114.00692 | 37814 ft | 463 kts | 300° |
| 2026-04-30 18:53 | 31.34765 | -114.06441 | 37807 ft | 461 kts | 300° |
| 2026-04-30 18:54 | 31.38891 | -114.12185 | 37809 ft | 463 kts | 301° |
| 2026-04-30 18:54 | 31.43041 | -114.17968 | 37807 ft | 462 kts | 301° |
| 2026-04-30 18:55 | 31.47160 | -114.23717 | 37814 ft | 463 kts | 301° |
| 2026-04-30 18:55 | 31.53363 | -114.32390 | 37817 ft | 463 kts | 301° |
| 2026-04-30 18:56 | 31.59590 | -114.41119 | 37808 ft | 464 kts | 301° |
| 2026-04-30 18:57 | 31.65791 | -114.49830 | 37807 ft | 465 kts | 302° |
| 2026-04-30 18:57 | 31.69918 | -114.55638 | 37802 ft | 464 kts | 302° |
| 2026-04-30 18:58 | 31.76107 | -114.64365 | 37804 ft | 465 kts | 302° |
| 2026-04-30 18:59 | 31.82333 | -114.73165 | 37802 ft | 464 kts | 302° |
| 2026-04-30 19:00 | 31.87274 | -114.82722 | 37814 ft | 450 kts | 285° |
| 2026-04-30 19:00 | 31.88413 | -114.86123 | 37802 ft | 449 kts | 285° |
| 2026-04-30 19:01 | 31.92887 | -114.99778 | 37804 ft | 449 kts | 285° |
| 2026-04-30 19:02 | 31.96187 | -115.09975 | 37831 ft | 448 kts | 285° |
| 2026-04-30 19:03 | 32.00623 | -115.23777 | 37842 ft | 449 kts | 286° |
| 2026-04-30 19:04 | 32.05033 | -115.37568 | 37857 ft | 451 kts | 286° |
| 2026-04-30 19:05 | 32.09446 | -115.51430 | 37879 ft | 450 kts | 287° |
| 2026-04-30 19:06 | 32.13850 | -115.65331 | 37200 ft | 461 kts | 287° |
| 2026-04-30 19:06 | 32.14975 | -115.68895 | 36396 ft | 462 kts | 287° |
| 2026-04-30 19:06 | 32.17195 | -115.75947 | 34781 ft | 461 kts | 287° |
| 2026-04-30 19:07 | 32.19414 | -115.83011 | 33215 ft | 459 kts | 288° |
| 2026-04-30 19:07 | 32.20530 | -115.86568 | 32478 ft | 458 kts | 288° |
| 2026-04-30 19:08 | 32.22722 | -115.93569 | 31064 ft | 456 kts | 289° |
| 2026-04-30 19:08 | 32.24907 | -116.00562 | 29633 ft | 455 kts | 290° |
| 2026-04-30 19:08 | 32.25986 | -116.04022 | 28909 ft | 455 kts | 290° |
| 2026-04-30 19:09 | 32.28173 | -116.11047 | 27406 ft | 455 kts | 291° |
| 2026-04-30 19:09 | 32.29243 | -116.14490 | 26666 ft | 454 kts | 291° |
| 2026-04-30 19:09 | 32.30329 | -116.17988 | 25905 ft | 453 kts | 291° |
| 2026-04-30 19:10 | 32.32492 | -116.24967 | 24372 ft | 451 kts | 292° |
| 2026-04-30 19:10 | 32.34631 | -116.31879 | 22749 ft | 449 kts | 291° |
| 2026-04-30 19:11 | 32.35692 | -116.35319 | 21919 ft | 448 kts | 292° |
| 2026-04-30 19:11 | 32.37806 | -116.42177 | 20285 ft | 445 kts | 291° |
| 2026-04-30 19:11 | 32.38862 | -116.45609 | 19493 ft | 443 kts | 292° |
| 2026-04-30 19:12 | 32.39756 | -116.49070 | 18677 ft | 441 kts | 284° |
| 2026-04-30 19:12 | 32.40317 | -116.52610 | 17890 ft | 439 kts | 281° |
| 2026-04-30 19:12 | 32.40785 | -116.56140 | 17015 ft | 432 kts | 280° |
| 2026-04-30 19:13 | 32.41665 | -116.62853 | 15490 ft | 398 kts | 280° |
| 2026-04-30 19:13 | 32.42956 | -116.68958 | 13986 ft | 373 kts | 287° |
| 2026-04-30 19:13 | 32.43710 | -116.71849 | 13198 ft | 364 kts | 287° |
| 2026-04-30 19:14 | 32.44446 | -116.74669 | 12443 ft | 357 kts | 288° |
| 2026-04-30 19:14 | 32.45171 | -116.77449 | 11670 ft | 350 kts | 288° |
| 2026-04-30 19:14 | 32.45873 | -116.80151 | 10900 ft | 344 kts | 288° |
| 2026-04-30 19:14 | 32.46665 | -116.82786 | 10133 ft | 338 kts | 297° |
| 2026-04-30 19:15 | 32.48024 | -116.84940 | 9337 ft | 327 kts | 324° |
| 2026-04-30 19:15 | 32.52080 | -116.87011 | 7754 ft | 318 kts | 329° |
| 2026-04-30 19:15 | 32.53564 | -116.88866 | 7114 ft | 313 kts | 297° |
| 2026-04-30 19:16 | 32.54030 | -116.91311 | 6970 ft | 293 kts | 271° |
| 2026-04-30 19:16 | 32.53922 | -116.93653 | 6186 ft | 301 kts | 266° |
| 2026-04-30 19:16 | 32.52882 | -116.98348 | 5097 ft | 284 kts | 237° |
| 2026-04-30 19:17 | 32.51482 | -117.00088 | 3533 ft | 316 kts | 212° |
| 2026-04-30 19:17 | 32.47288 | -117.01759 | 1811 ft | 301 kts | 193° |
| 2026-04-30 19:17 | 32.45388 | -117.02242 | 2556 ft | 273 kts | 192° |
| 2026-04-30 19:18 | 32.42470 | -117.03011 | 2982 ft | 247 kts | 193° |
| 2026-04-30 19:18 | 32.40258 | -117.03619 | 3777 ft | 245 kts | 194° |
| 2026-04-30 19:18 | 32.38563 | -117.04082 | 4376 ft | 257 kts | 194° |
| 2026-04-30 19:19 | 32.36787 | -117.04555 | 4884 ft | 275 kts | 191° |
| 2026-04-30 19:19 | 32.34856 | -117.04520 | 4968 ft | 277 kts | 165° |
| 2026-04-30 19:19 | 32.31973 | -117.01711 | 4981 ft | 276 kts | 122° |
| 2026-04-30 19:20 | 32.30944 | -116.99792 | 4978 ft | 275 kts | 121° |
| 2026-04-30 19:20 | 32.29933 | -116.97879 | 4981 ft | 275 kts | 121° |
| 2026-04-30 19:20 | 32.28735 | -116.93716 | 4965 ft | 271 kts | 91° |
| 2026-04-30 19:21 | 32.28685 | -116.91479 | 4975 ft | 272 kts | 90° |
| 2026-04-30 19:21 | 32.29078 | -116.87134 | 4957 ft | 257 kts | 60° |
| 2026-04-30 19:22 | 32.31097 | -116.83876 | 4398 ft | 247 kts | 51° |
| 2026-04-30 19:22 | 32.34743 | -116.80114 | 3710 ft | 215 kts | 7° |
| 2026-04-30 19:23 | 32.38875 | -116.79801 | 2939 ft | 194 kts | 337° |
| 2026-04-30 19:24 | 32.41184 | -116.80832 | 3333 ft | 176 kts | 349° |
| 2026-04-30 19:24 | 32.42366 | -116.81112 | 2948 ft | 178 kts | 348° |
| 2026-04-30 19:24 | 32.44875 | -116.81733 | 1994 ft | 175 kts | 347° |
| 2026-04-30 19:25 | 32.47549 | -116.83611 | 1968 ft | 141 kts | 321° |
| 2026-04-30 19:26 | 32.49107 | -116.84995 | 1966 ft | 139 kts | 321° |
| 2026-04-30 19:26 | 32.50652 | -116.86372 | 1968 ft | 140 kts | 321° |
| 2026-04-30 19:26 | 32.51436 | -116.87076 | 1964 ft | 141 kts | 322° |
| 2026-04-30 19:27 | 32.52859 | -116.88655 | 1965 ft | 141 kts | 303° |
| 2026-04-30 19:27 | 32.53518 | -116.90921 | 1421 ft | 141 kts | 274° |
| 2026-04-30 19:28 | 32.53538 | -116.92069 | 1023 ft | 141 kts | 272° |
| 2026-04-30 19:28 | 32.53743 | -116.94269 | 675 ft | 127 kts | 278° |
| 2026-04-30 19:29 | 32.54033 | -116.96426 | 482 ft | 85 kts | 277° |
| 2026-04-30 19:29 | 32.54102 | -116.96964 | 471 ft | 51 kts | 278° |
| 2026-04-30 19:30 | 32.54255 | -116.97372 | 469 ft | 6 kts | 320° |
| 2026-04-30 19:30 | 32.54357 | -116.97401 | 471 ft | 8 kts | 347° |
| 2026-04-30 19:31 | 32.54422 | -116.97420 | 472 ft | 2 kts | 344° |
| 2026-04-30 19:31 | 32.54427 | -116.97422 | 472 ft | 0 kts | 343° |
| 2026-04-30 19:32 | 32.54427 | -116.97423 | 472 ft | 0 kts | 343° |